sensor_id;sensor_type;location;lat;lon;timestamp;temperature;humidity
37646;DHT22;23489;49.600;6.138;2023-03-31T00:00:44;10.90;99.90
37646;DHT22;23489;49.600;6.138;2023-03-31T00:03:11;10.90;99.90
37646;DHT22;23489;49.600;6.138;2023-03-31T00:05:37;10.90;99.90
37646;DHT22;23489;49.600;6.138;2023-03-31T00:08:02;10.90;99.90
37646;DHT22;23489;49.600;6.138;2023-03-31T00:10:32;10.90;99.90
37646;DHT22;23489;49.600;6.138;2023-03-31T00:12:59;10.80;99.90
37646;DHT22;23489;49.600;6.138;2023-03-31T00:15:25;10.80;99.90
37646;DHT22;23489;49.600;6.138;2023-03-31T00:17:51;10.80;99.90
37646;DHT22;23489;49.600;6.138;2023-03-31T00:20:17;10.80;99.90
37646;DHT22;23489;49.600;6.138;2023-03-31T00:22:43;10.80;99.90
37646;DHT22;23489;49.600;6.138;2023-03-31T00:25:14;10.80;99.90
37646;DHT22;23489;49.600;6.138;2023-03-31T00:27:44;10.70;99.90
37646;DHT22;23489;49.600;6.138;2023-03-31T00:30:12;10.70;99.90
37646;DHT22;23489;49.600;6.138;2023-03-31T00:32:38;10.70;99.90
37646;DHT22;23489;49.600;6.138;2023-03-31T00:35:04;10.70;99.90
37646;DHT22;23489;49.600;6.138;2023-03-31T00:37:30;10.70;99.90
37646;DHT22;23489;49.600;6.138;2023-03-31T00:39:58;10.70;99.90
37646;DHT22;23489;49.600;6.138;2023-03-31T00:42:25;10.70;99.90
37646;DHT22;23489;49.600;6.138;2023-03-31T00:48:02;10.60;99.90
37646;DHT22;23489;49.600;6.138;2023-03-31T00:50:34;10.60;99.90
37646;DHT22;23489;49.600;6.138;2023-03-31T00:53:07;10.60;99.90
37646;DHT22;23489;49.600;6.138;2023-03-31T00:55:39;10.50;99.90
37646;DHT22;23489;49.600;6.138;2023-03-31T00:58:06;10.50;99.90
37646;DHT22;23489;49.600;6.138;2023-03-31T01:00:32;10.50;99.90
37646;DHT22;23489;49.600;6.138;2023-03-31T01:03:00;10.50;99.90
37646;DHT22;23489;49.600;6.138;2023-03-31T01:05:48;10.40;99.90
37646;DHT22;23489;49.600;6.138;2023-03-31T01:08:17;10.40;99.90
37646;DHT22;23489;49.600;6.138;2023-03-31T01:10:47;10.40;99.90
37646;DHT22;23489;49.600;6.138;2023-03-31T01:13:14;10.30;99.90
37646;DHT22;23489;49.600;6.138;2023-03-31T01:15:41;10.30;99.90
37646;DHT22;23489;49.600;6.138;2023-03-31T01:18:07;10.20;99.90
37646;DHT22;23489;49.600;6.138;2023-03-31T01:23:55;10.20;99.90
37646;DHT22;23489;49.600;6.138;2023-03-31T01:41:24;10.00;99.90
37646;DHT22;23489;49.600;6.138;2023-03-31T01:44:16;10.00;99.90
37646;DHT22;23489;49.600;6.138;2023-03-31T01:46:59;10.00;99.90
37646;DHT22;23489;49.600;6.138;2023-03-31T01:49:48;10.00;99.90
37646;DHT22;23489;49.600;6.138;2023-03-31T01:55:02;9.90;99.90
37646;DHT22;23489;49.600;6.138;2023-03-31T01:57:33;9.90;99.90
37646;DHT22;23489;49.600;6.138;2023-03-31T02:00:39;9.80;99.90
37646;DHT22;23489;49.600;6.138;2023-03-31T02:03:16;9.80;99.90
37646;DHT22;23489;49.600;6.138;2023-03-31T02:05:48;9.80;99.90
37646;DHT22;23489;49.600;6.138;2023-03-31T02:08:25;9.70;99.90
37646;DHT22;23489;49.600;6.138;2023-03-31T02:10:53;9.70;99.90
37646;DHT22;23489;49.600;6.138;2023-03-31T02:13:20;9.70;99.90
37646;DHT22;23489;49.600;6.138;2023-03-31T02:15:52;9.70;99.90
37646;DHT22;23489;49.600;6.138;2023-03-31T02:18:23;9.60;99.90
37646;DHT22;23489;49.600;6.138;2023-03-31T02:20:52;9.60;99.90
37646;DHT22;23489;49.600;6.138;2023-03-31T02:23:23;9.60;99.90
37646;DHT22;23489;49.600;6.138;2023-03-31T02:26:01;9.60;99.90
37646;DHT22;23489;49.600;6.138;2023-03-31T02:28:29;9.60;99.90
37646;DHT22;23489;49.600;6.138;2023-03-31T02:31:24;9.50;99.90
37646;DHT22;23489;49.600;6.138;2023-03-31T02:33:52;9.50;99.90
37646;DHT22;23489;49.600;6.138;2023-03-31T02:36:17;9.50;99.90
37646;DHT22;23489;49.600;6.138;2023-03-31T02:38:56;9.50;99.90
37646;DHT22;23489;49.600;6.138;2023-03-31T02:41:26;9.50;99.90
37646;DHT22;23489;49.600;6.138;2023-03-31T02:43:51;9.40;99.90
37646;DHT22;23489;49.600;6.138;2023-03-31T02:46:17;9.40;99.90
37646;DHT22;23489;49.600;6.138;2023-03-31T02:48:50;9.40;99.90
37646;DHT22;23489;49.600;6.138;2023-03-31T03:06:13;9.40;99.90
37646;DHT22;23489;49.600;6.138;2023-03-31T03:09:01;9.30;99.90
37646;DHT22;23489;49.600;6.138;2023-03-31T03:11:36;9.40;99.90
37646;DHT22;23489;49.600;6.138;2023-03-31T03:14:05;9.40;99.90
37646;DHT22;23489;49.600;6.138;2023-03-31T03:16:40;9.30;99.90
37646;DHT22;23489;49.600;6.138;2023-03-31T03:19:07;9.30;99.90
37646;DHT22;23489;49.600;6.138;2023-03-31T03:21:33;9.30;99.90
37646;DHT22;23489;49.600;6.138;2023-03-31T03:23:59;9.30;99.90
37646;DHT22;23489;49.600;6.138;2023-03-31T03:26:26;9.30;99.90
37646;DHT22;23489;49.600;6.138;2023-03-31T03:28:55;9.30;99.90
37646;DHT22;23489;49.600;6.138;2023-03-31T03:31:22;9.20;99.90
37646;DHT22;23489;49.600;6.138;2023-03-31T03:33:49;9.20;99.90
37646;DHT22;23489;49.600;6.138;2023-03-31T03:36:15;9.20;99.90
37646;DHT22;23489;49.600;6.138;2023-03-31T03:38:41;9.20;99.90
37646;DHT22;23489;49.600;6.138;2023-03-31T03:41:07;9.20;99.90
37646;DHT22;23489;49.600;6.138;2023-03-31T03:43:33;9.10;99.90
37646;DHT22;23489;49.600;6.138;2023-03-31T03:45:59;9.20;99.90
37646;DHT22;23489;49.600;6.138;2023-03-31T03:48:25;9.10;99.90
37646;DHT22;23489;49.600;6.138;2023-03-31T03:50:51;9.10;99.90
37646;DHT22;23489;49.600;6.138;2023-03-31T03:53:19;9.10;99.90
37646;DHT22;23489;49.600;6.138;2023-03-31T03:55:45;9.10;99.90
37646;DHT22;23489;49.600;6.138;2023-03-31T03:58:14;9.10;99.90
37646;DHT22;23489;49.600;6.138;2023-03-31T04:00:40;9.10;99.90
37646;DHT22;23489;49.600;6.138;2023-03-31T04:03:06;9.10;99.90
37646;DHT22;23489;49.600;6.138;2023-03-31T04:05:31;9.10;99.90
37646;DHT22;23489;49.600;6.138;2023-03-31T04:07:57;9.00;99.90
37646;DHT22;23489;49.600;6.138;2023-03-31T04:10:23;9.00;99.90
37646;DHT22;23489;49.600;6.138;2023-03-31T04:12:48;8.90;99.90
37646;DHT22;23489;49.600;6.138;2023-03-31T04:15:14;8.90;99.90
37646;DHT22;23489;49.600;6.138;2023-03-31T04:17:39;8.90;99.90
37646;DHT22;23489;49.600;6.138;2023-03-31T04:20:07;9.00;99.90
37646;DHT22;23489;49.600;6.138;2023-03-31T04:22:35;9.00;99.90
37646;DHT22;23489;49.600;6.138;2023-03-31T04:25:06;8.90;99.90
37646;DHT22;23489;49.600;6.138;2023-03-31T04:27:43;8.80;99.90
37646;DHT22;23489;49.600;6.138;2023-03-31T04:30:15;8.80;99.90
37646;DHT22;23489;49.600;6.138;2023-03-31T04:33:00;8.90;99.90
37646;DHT22;23489;49.600;6.138;2023-03-31T04:35:28;8.90;99.90
37646;DHT22;23489;49.600;6.138;2023-03-31T04:38:21;8.90;99.90
37646;DHT22;23489;49.600;6.138;2023-03-31T04:40:49;8.90;99.90
37646;DHT22;23489;49.600;6.138;2023-03-31T04:43:15;8.90;99.90
37646;DHT22;23489;49.600;6.138;2023-03-31T04:45:41;8.90;99.90
37646;DHT22;23489;49.600;6.138;2023-03-31T04:48:07;9.00;99.90
37646;DHT22;23489;49.600;6.138;2023-03-31T04:50:34;9.00;99.90
37646;DHT22;23489;49.600;6.138;2023-03-31T04:53:00;8.90;99.90
37646;DHT22;23489;49.600;6.138;2023-03-31T04:55:26;8.90;99.90
37646;DHT22;23489;49.600;6.138;2023-03-31T04:57:52;8.90;99.90
37646;DHT22;23489;49.600;6.138;2023-03-31T05:00:18;8.90;99.90
37646;DHT22;23489;49.600;6.138;2023-03-31T05:02:44;8.90;99.90
37646;DHT22;23489;49.600;6.138;2023-03-31T05:05:10;8.80;99.90
37646;DHT22;23489;49.600;6.138;2023-03-31T05:07:36;8.80;99.90
37646;DHT22;23489;49.600;6.138;2023-03-31T05:10:02;8.80;99.90
37646;DHT22;23489;49.600;6.138;2023-03-31T05:12:28;8.80;99.90
37646;DHT22;23489;49.600;6.138;2023-03-31T05:14:54;8.70;99.90
37646;DHT22;23489;49.600;6.138;2023-03-31T05:17:19;8.70;99.90
37646;DHT22;23489;49.600;6.138;2023-03-31T05:19:45;8.80;99.90
37646;DHT22;23489;49.600;6.138;2023-03-31T05:22:11;8.70;99.90
37646;DHT22;23489;49.600;6.138;2023-03-31T05:24:36;8.70;99.90
37646;DHT22;23489;49.600;6.138;2023-03-31T05:27:02;8.80;99.90
37646;DHT22;23489;49.600;6.138;2023-03-31T05:29:28;8.80;99.90
37646;DHT22;23489;49.600;6.138;2023-03-31T05:31:54;8.80;99.90
37646;DHT22;23489;49.600;6.138;2023-03-31T05:34:19;8.80;99.90
37646;DHT22;23489;49.600;6.138;2023-03-31T05:36:45;8.90;99.90
37646;DHT22;23489;49.600;6.138;2023-03-31T05:39:13;9.00;99.90
37646;DHT22;23489;49.600;6.138;2023-03-31T05:41:39;9.00;99.90
37646;DHT22;23489;49.600;6.138;2023-03-31T05:44:05;9.00;99.90
37646;DHT22;23489;49.600;6.138;2023-03-31T05:46:30;9.10;99.90
37646;DHT22;23489;49.600;6.138;2023-03-31T05:48:56;9.10;99.90
37646;DHT22;23489;49.600;6.138;2023-03-31T05:51:23;9.10;99.90
37646;DHT22;23489;49.600;6.138;2023-03-31T05:53:49;9.20;99.90
37646;DHT22;23489;49.600;6.138;2023-03-31T05:56:15;9.20;99.90
37646;DHT22;23489;49.600;6.138;2023-03-31T05:58:40;9.20;99.90
37646;DHT22;23489;49.600;6.138;2023-03-31T06:01:10;9.20;99.90
37646;DHT22;23489;49.600;6.138;2023-03-31T06:03:39;9.20;99.90
37646;DHT22;23489;49.600;6.138;2023-03-31T06:06:08;9.20;99.90
37646;DHT22;23489;49.600;6.138;2023-03-31T06:08:35;9.30;99.90
37646;DHT22;23489;49.600;6.138;2023-03-31T06:11:10;9.40;99.90
37646;DHT22;23489;49.600;6.138;2023-03-31T06:13:37;9.40;99.90
37646;DHT22;23489;49.600;6.138;2023-03-31T06:16:04;9.50;99.90
37646;DHT22;23489;49.600;6.138;2023-03-31T06:18:32;9.60;99.90
37646;DHT22;23489;49.600;6.138;2023-03-31T06:20:58;9.70;99.90
37646;DHT22;23489;49.600;6.138;2023-03-31T06:23:24;9.70;99.90
37646;DHT22;23489;49.600;6.138;2023-03-31T06:25:51;9.70;99.90
37646;DHT22;23489;49.600;6.138;2023-03-31T06:28:17;9.70;99.90
37646;DHT22;23489;49.600;6.138;2023-03-31T06:30:43;9.70;99.90
37646;DHT22;23489;49.600;6.138;2023-03-31T06:33:08;9.80;99.90
37646;DHT22;23489;49.600;6.138;2023-03-31T06:35:37;9.80;99.90
37646;DHT22;23489;49.600;6.138;2023-03-31T06:38:02;9.80;99.90
37646;DHT22;23489;49.600;6.138;2023-03-31T06:40:28;9.80;99.90
37646;DHT22;23489;49.600;6.138;2023-03-31T06:42:54;9.90;99.90
37646;DHT22;23489;49.600;6.138;2023-03-31T06:45:20;9.90;99.90
37646;DHT22;23489;49.600;6.138;2023-03-31T06:47:46;10.00;99.90
37646;DHT22;23489;49.600;6.138;2023-03-31T06:50:12;10.00;99.90
37646;DHT22;23489;49.600;6.138;2023-03-31T06:52:38;10.20;99.90
37646;DHT22;23489;49.600;6.138;2023-03-31T06:55:06;10.30;99.90
37646;DHT22;23489;49.600;6.138;2023-03-31T06:57:32;10.30;99.90
37646;DHT22;23489;49.600;6.138;2023-03-31T06:59:59;10.50;99.90
37646;DHT22;23489;49.600;6.138;2023-03-31T07:02:24;10.70;99.90
37646;DHT22;23489;49.600;6.138;2023-03-31T07:04:50;10.80;99.90
37646;DHT22;23489;49.600;6.138;2023-03-31T07:07:16;10.80;99.90
37646;DHT22;23489;49.600;6.138;2023-03-31T07:09:41;10.90;99.90
37646;DHT22;23489;49.600;6.138;2023-03-31T07:12:07;10.90;99.90
37646;DHT22;23489;49.600;6.138;2023-03-31T07:14:34;10.90;99.90
37646;DHT22;23489;49.600;6.138;2023-03-31T07:17:00;10.80;99.90
37646;DHT22;23489;49.600;6.138;2023-03-31T07:19:25;10.80;99.90
37646;DHT22;23489;49.600;6.138;2023-03-31T07:21:51;10.80;99.90
37646;DHT22;23489;49.600;6.138;2023-03-31T07:24:17;10.80;99.90
37646;DHT22;23489;49.600;6.138;2023-03-31T07:26:43;10.90;99.90
37646;DHT22;23489;49.600;6.138;2023-03-31T07:29:08;11.00;99.90
37646;DHT22;23489;49.600;6.138;2023-03-31T07:31:34;11.70;99.90
37646;DHT22;23489;49.600;6.138;2023-03-31T07:34:01;12.50;99.90
37646;DHT22;23489;49.600;6.138;2023-03-31T07:36:28;12.70;99.90
37646;DHT22;23489;49.600;6.138;2023-03-31T07:38:54;12.60;99.90
37646;DHT22;23489;49.600;6.138;2023-03-31T07:41:20;12.30;99.90
37646;DHT22;23489;49.600;6.138;2023-03-31T07:43:46;12.10;99.90
37646;DHT22;23489;49.600;6.138;2023-03-31T07:46:14;11.80;99.90
37646;DHT22;23489;49.600;6.138;2023-03-31T07:48:40;11.70;99.90
37646;DHT22;23489;49.600;6.138;2023-03-31T07:51:06;11.40;99.90
37646;DHT22;23489;49.600;6.138;2023-03-31T07:53:35;11.30;99.90
37646;DHT22;23489;49.600;6.138;2023-03-31T07:56:01;11.10;99.90
37646;DHT22;23489;49.600;6.138;2023-03-31T07:58:26;10.90;99.90
37646;DHT22;23489;49.600;6.138;2023-03-31T08:00:52;10.80;99.90
37646;DHT22;23489;49.600;6.138;2023-03-31T08:03:18;10.60;99.90
37646;DHT22;23489;49.600;6.138;2023-03-31T08:05:43;10.50;99.90
37646;DHT22;23489;49.600;6.138;2023-03-31T08:08:09;10.30;99.90
37646;DHT22;23489;49.600;6.138;2023-03-31T08:10:35;9.60;99.90
37646;DHT22;23489;49.600;6.138;2023-03-31T08:13:00;9.00;99.90
37646;DHT22;23489;49.600;6.138;2023-03-31T08:15:26;8.60;99.90
37646;DHT22;23489;49.600;6.138;2023-03-31T08:17:52;8.30;99.90
37646;DHT22;23489;49.600;6.138;2023-03-31T08:20:17;8.20;99.90
37646;DHT22;23489;49.600;6.138;2023-03-31T08:22:43;8.20;99.90
37646;DHT22;23489;49.600;6.138;2023-03-31T08:25:09;8.30;99.90
37646;DHT22;23489;49.600;6.138;2023-03-31T08:27:36;8.30;99.90
37646;DHT22;23489;49.600;6.138;2023-03-31T08:30:02;8.40;99.90
37646;DHT22;23489;49.600;6.138;2023-03-31T08:32:30;8.60;99.90
37646;DHT22;23489;49.600;6.138;2023-03-31T08:34:56;8.70;99.90
37646;DHT22;23489;49.600;6.138;2023-03-31T08:37:22;9.00;99.90
37646;DHT22;23489;49.600;6.138;2023-03-31T08:39:48;9.20;99.90
37646;DHT22;23489;49.600;6.138;2023-03-31T08:42:16;9.50;99.90
37646;DHT22;23489;49.600;6.138;2023-03-31T08:44:51;9.70;99.90
37646;DHT22;23489;49.600;6.138;2023-03-31T08:47:21;9.80;99.90
37646;DHT22;23489;49.600;6.138;2023-03-31T08:49:55;10.00;99.90
37646;DHT22;23489;49.600;6.138;2023-03-31T08:52:25;10.10;99.90
37646;DHT22;23489;49.600;6.138;2023-03-31T08:54:59;10.20;99.90
37646;DHT22;23489;49.600;6.138;2023-03-31T09:00:19;10.40;99.90
37646;DHT22;23489;49.600;6.138;2023-03-31T09:02:54;10.50;99.90
37646;DHT22;23489;49.600;6.138;2023-03-31T09:05:51;10.90;99.90
37646;DHT22;23489;49.600;6.138;2023-03-31T09:08:37;11.30;99.90
37646;DHT22;23489;49.600;6.138;2023-03-31T09:11:22;11.40;99.90
37646;DHT22;23489;49.600;6.138;2023-03-31T09:16:47;11.50;99.90
37646;DHT22;23489;49.600;6.138;2023-03-31T09:22:24;12.40;99.90
37646;DHT22;23489;49.600;6.138;2023-03-31T09:24:58;12.40;99.90
37646;DHT22;23489;49.600;6.138;2023-03-31T09:27:29;12.20;99.90
37646;DHT22;23489;49.600;6.138;2023-03-31T09:30:02;12.10;99.90
37646;DHT22;23489;49.600;6.138;2023-03-31T09:32:30;12.10;99.90
37646;DHT22;23489;49.600;6.138;2023-03-31T09:35:11;12.50;99.90
37646;DHT22;23489;49.600;6.138;2023-03-31T09:37:38;13.50;99.90
37646;DHT22;23489;49.600;6.138;2023-03-31T09:40:05;13.90;99.90
37646;DHT22;23489;49.600;6.138;2023-03-31T09:42:34;13.80;99.90
37646;DHT22;23489;49.600;6.138;2023-03-31T09:45:01;13.10;99.90
37646;DHT22;23489;49.600;6.138;2023-03-31T09:47:34;12.40;99.90
37646;DHT22;23489;49.600;6.138;2023-03-31T09:50:06;11.80;99.90
37646;DHT22;23489;49.600;6.138;2023-03-31T09:52:35;11.50;99.90
37646;DHT22;23489;49.600;6.138;2023-03-31T09:55:05;11.30;99.90
37646;DHT22;23489;49.600;6.138;2023-03-31T09:57:38;11.40;99.90
37646;DHT22;23489;49.600;6.138;2023-03-31T10:00:16;11.70;99.90
37646;DHT22;23489;49.600;6.138;2023-03-31T10:02:54;11.90;99.90
37646;DHT22;23489;49.600;6.138;2023-03-31T10:05:48;12.00;99.90
37646;DHT22;23489;49.600;6.138;2023-03-31T10:08:30;12.40;99.90
37646;DHT22;23489;49.600;6.138;2023-03-31T10:13:43;13.50;99.90
37646;DHT22;23489;49.600;6.138;2023-03-31T10:16:11;14.70;99.90
37646;DHT22;23489;49.600;6.138;2023-03-31T10:18:39;16.30;99.90
37646;DHT22;23489;49.600;6.138;2023-03-31T10:24:08;17.40;99.90
37646;DHT22;23489;49.600;6.138;2023-03-31T10:26:35;17.00;99.90
37646;DHT22;23489;49.600;6.138;2023-03-31T10:29:00;17.60;99.90
37646;DHT22;23489;49.600;6.138;2023-03-31T10:31:34;18.50;99.90
37646;DHT22;23489;49.600;6.138;2023-03-31T10:34:06;18.40;99.90
37646;DHT22;23489;49.600;6.138;2023-03-31T10:36:33;17.90;99.90
37646;DHT22;23489;49.600;6.138;2023-03-31T10:39:05;18.10;99.90
37646;DHT22;23489;49.600;6.138;2023-03-31T10:41:32;19.00;99.90
37646;DHT22;23489;49.600;6.138;2023-03-31T10:43:59;20.00;99.90
37646;DHT22;23489;49.600;6.138;2023-03-31T10:46:47;19.80;99.90
37646;DHT22;23489;49.600;6.138;2023-03-31T10:51:53;18.60;99.90
37646;DHT22;23489;49.600;6.138;2023-03-31T10:54:19;18.70;99.90
37646;DHT22;23489;49.600;6.138;2023-03-31T10:56:48;17.90;99.90
37646;DHT22;23489;49.600;6.138;2023-03-31T11:10:43;16.60;99.90
37646;DHT22;23489;49.600;6.138;2023-03-31T11:13:30;16.20;99.90
37646;DHT22;23489;49.600;6.138;2023-03-31T11:16:05;16.10;99.90
37646;DHT22;23489;49.600;6.138;2023-03-31T11:24:14;15.40;99.90
37646;DHT22;23489;49.600;6.138;2023-03-31T11:27:05;15.50;99.90
37646;DHT22;23489;49.600;6.138;2023-03-31T11:32:39;15.30;99.90
37646;DHT22;23489;49.600;6.138;2023-03-31T11:35:18;15.40;99.90
37646;DHT22;23489;49.600;6.138;2023-03-31T11:41:16;15.70;99.90
37646;DHT22;23489;49.600;6.138;2023-03-31T11:43:47;15.90;99.90
37646;DHT22;23489;49.600;6.138;2023-03-31T11:46:24;15.60;99.90
37646;DHT22;23489;49.600;6.138;2023-03-31T11:48:54;15.40;99.90
37646;DHT22;23489;49.600;6.138;2023-03-31T11:51:51;15.10;99.90
37646;DHT22;23489;49.600;6.138;2023-03-31T11:54:38;14.90;99.90
37646;DHT22;23489;49.600;6.138;2023-03-31T11:57:20;14.40;99.90
37646;DHT22;23489;49.600;6.138;2023-03-31T11:59:51;14.10;99.90
37646;DHT22;23489;49.600;6.138;2023-03-31T12:05:09;12.70;99.90
37646;DHT22;23489;49.600;6.138;2023-03-31T12:10:33;12.00;99.90
37646;DHT22;23489;49.600;6.138;2023-03-31T12:18:35;12.60;99.90
37646;DHT22;23489;49.600;6.138;2023-03-31T12:21:02;13.00;99.90
37646;DHT22;23489;49.600;6.138;2023-03-31T12:23:37;13.30;99.90
37646;DHT22;23489;49.600;6.138;2023-03-31T12:28:39;13.60;99.90
37646;DHT22;23489;49.600;6.138;2023-03-31T12:31:08;13.80;99.90
37646;DHT22;23489;49.600;6.138;2023-03-31T12:33:44;13.90;99.90
37646;DHT22;23489;49.600;6.138;2023-03-31T12:39:29;14.00;99.90
37646;DHT22;23489;49.600;6.138;2023-03-31T12:42:24;14.20;99.90
37646;DHT22;23489;49.600;6.138;2023-03-31T12:48:14;13.20;99.90
37646;DHT22;23489;49.600;6.138;2023-03-31T12:50:59;12.20;99.90
37646;DHT22;23489;49.600;6.138;2023-03-31T12:53:53;11.30;99.90
37646;DHT22;23489;49.600;6.138;2023-03-31T12:56:23;10.50;99.90
37646;DHT22;23489;49.600;6.138;2023-03-31T12:58:49;10.20;99.90
37646;DHT22;23489;49.600;6.138;2023-03-31T13:01:24;10.00;99.90
37646;DHT22;23489;49.600;6.138;2023-03-31T13:09:04;10.00;99.90
37646;DHT22;23489;49.600;6.138;2023-03-31T13:16:31;11.10;99.90
37646;DHT22;23489;49.600;6.138;2023-03-31T13:18:57;11.40;99.90
37646;DHT22;23489;49.600;6.138;2023-03-31T13:21:24;11.80;99.90
37646;DHT22;23489;49.600;6.138;2023-03-31T13:23:50;12.10;99.90
37646;DHT22;23489;49.600;6.138;2023-03-31T13:34:48;13.20;99.90
37646;DHT22;23489;49.600;6.138;2023-03-31T13:42:57;13.80;99.90
37646;DHT22;23489;49.600;6.138;2023-03-31T13:48:49;13.80;99.90
37646;DHT22;23489;49.600;6.138;2023-03-31T13:51:53;13.80;99.90
37646;DHT22;23489;49.600;6.138;2023-03-31T14:00:15;14.30;99.90
37646;DHT22;23489;49.600;6.138;2023-03-31T14:05:44;14.40;99.90
37646;DHT22;23489;49.600;6.138;2023-03-31T14:08:33;14.00;99.90
37646;DHT22;23489;49.600;6.138;2023-03-31T14:11:22;13.60;99.90
37646;DHT22;23489;49.600;6.138;2023-03-31T14:14:16;12.90;99.90
37646;DHT22;23489;49.600;6.138;2023-03-31T14:16:48;12.00;99.90
37646;DHT22;23489;49.600;6.138;2023-03-31T14:25:46;10.40;99.90
37646;DHT22;23489;49.600;6.138;2023-03-31T14:39:24;10.30;99.90
37646;DHT22;23489;49.600;6.138;2023-03-31T14:41:53;10.40;99.90
37646;DHT22;23489;49.600;6.138;2023-03-31T14:44:19;10.50;99.90
37646;DHT22;23489;49.600;6.138;2023-03-31T14:46:45;10.50;99.90
37646;DHT22;23489;49.600;6.138;2023-03-31T14:49:25;10.60;99.90
37646;DHT22;23489;49.600;6.138;2023-03-31T14:51:54;10.60;99.90
37646;DHT22;23489;49.600;6.138;2023-03-31T14:54:21;10.70;99.90
37646;DHT22;23489;49.600;6.138;2023-03-31T14:56:49;10.90;99.90
37646;DHT22;23489;49.600;6.138;2023-03-31T14:59:27;11.00;99.90
37646;DHT22;23489;49.600;6.138;2023-03-31T15:01:59;11.20;99.90
37646;DHT22;23489;49.600;6.138;2023-03-31T15:04:29;11.40;99.90
37646;DHT22;23489;49.600;6.138;2023-03-31T15:06:58;11.50;99.90
37646;DHT22;23489;49.600;6.138;2023-03-31T15:09:29;11.60;99.90
37646;DHT22;23489;49.600;6.138;2023-03-31T15:12:03;11.70;99.90
37646;DHT22;23489;49.600;6.138;2023-03-31T15:14:35;11.80;99.90
37646;DHT22;23489;49.600;6.138;2023-03-31T15:17:02;11.80;99.90
37646;DHT22;23489;49.600;6.138;2023-03-31T15:19:33;11.70;99.90
37646;DHT22;23489;49.600;6.138;2023-03-31T15:22:12;11.10;99.90
37646;DHT22;23489;49.600;6.138;2023-03-31T15:24:38;10.70;99.90
37646;DHT22;23489;49.600;6.138;2023-03-31T15:29:48;10.50;99.90
37646;DHT22;23489;49.600;6.138;2023-03-31T15:32:18;10.60;99.90
37646;DHT22;23489;49.600;6.138;2023-03-31T15:34:47;10.70;99.90
37646;DHT22;23489;49.600;6.138;2023-03-31T15:37:14;10.90;99.90
37646;DHT22;23489;49.600;6.138;2023-03-31T15:39:44;11.00;99.90
37646;DHT22;23489;49.600;6.138;2023-03-31T15:42:11;11.20;99.90
37646;DHT22;23489;49.600;6.138;2023-03-31T15:44:47;11.30;99.90
37646;DHT22;23489;49.600;6.138;2023-03-31T15:47:20;11.20;99.90
37646;DHT22;23489;49.600;6.138;2023-03-31T15:50:12;11.20;99.90
37646;DHT22;23489;49.600;6.138;2023-03-31T15:52:46;11.10;99.90
37646;DHT22;23489;49.600;6.138;2023-03-31T15:57:51;10.90;99.90
37646;DHT22;23489;49.600;6.138;2023-03-31T16:00:40;11.00;99.90
37646;DHT22;23489;49.600;6.138;2023-03-31T16:03:27;11.20;99.90
37646;DHT22;23489;49.600;6.138;2023-03-31T16:06:00;11.20;99.90
37646;DHT22;23489;49.600;6.138;2023-03-31T16:08:30;11.30;99.90
37646;DHT22;23489;49.600;6.138;2023-03-31T16:11:08;11.40;99.90
37646;DHT22;23489;49.600;6.138;2023-03-31T16:13:37;11.50;99.90
37646;DHT22;23489;49.600;6.138;2023-03-31T16:16:08;11.50;99.90
37646;DHT22;23489;49.600;6.138;2023-03-31T16:18:44;11.60;99.90
37646;DHT22;23489;49.600;6.138;2023-03-31T16:21:12;11.60;99.90
37646;DHT22;23489;49.600;6.138;2023-03-31T16:23:40;11.70;99.90
37646;DHT22;23489;49.600;6.138;2023-03-31T16:26:09;11.70;99.90
37646;DHT22;23489;49.600;6.138;2023-03-31T16:28:37;11.80;99.90
37646;DHT22;23489;49.600;6.138;2023-03-31T16:31:03;11.80;99.90
37646;DHT22;23489;49.600;6.138;2023-03-31T16:33:50;11.80;99.90
37646;DHT22;23489;49.600;6.138;2023-03-31T16:36:16;11.90;99.90
37646;DHT22;23489;49.600;6.138;2023-03-31T16:38:43;11.90;99.90
37646;DHT22;23489;49.600;6.138;2023-03-31T16:41:08;11.90;99.90
37646;DHT22;23489;49.600;6.138;2023-03-31T16:43:35;12.00;99.90
37646;DHT22;23489;49.600;6.138;2023-03-31T16:46:02;12.00;99.90
37646;DHT22;23489;49.600;6.138;2023-03-31T16:48:29;11.90;99.90
37646;DHT22;23489;49.600;6.138;2023-03-31T16:50:58;11.90;99.90
37646;DHT22;23489;49.600;6.138;2023-03-31T16:53:26;11.90;99.90
37646;DHT22;23489;49.600;6.138;2023-03-31T16:55:53;11.80;99.90
37646;DHT22;23489;49.600;6.138;2023-03-31T16:58:19;11.80;99.90
37646;DHT22;23489;49.600;6.138;2023-03-31T17:00:46;11.80;99.90
37646;DHT22;23489;49.600;6.138;2023-03-31T17:03:12;11.90;99.90
37646;DHT22;23489;49.600;6.138;2023-03-31T17:05:44;11.90;99.90
37646;DHT22;23489;49.600;6.138;2023-03-31T17:08:11;11.90;99.90
37646;DHT22;23489;49.600;6.138;2023-03-31T17:10:39;11.90;99.90
37646;DHT22;23489;49.600;6.138;2023-03-31T17:13:06;11.80;99.90
37646;DHT22;23489;49.600;6.138;2023-03-31T17:15:32;11.70;99.90
37646;DHT22;23489;49.600;6.138;2023-03-31T17:18:01;11.70;99.90
37646;DHT22;23489;49.600;6.138;2023-03-31T17:20:28;11.50;99.90
37646;DHT22;23489;49.600;6.138;2023-03-31T17:22:55;11.50;99.90
37646;DHT22;23489;49.600;6.138;2023-03-31T17:25:21;11.40;99.90
37646;DHT22;23489;49.600;6.138;2023-03-31T17:27:47;11.40;99.90
37646;DHT22;23489;49.600;6.138;2023-03-31T17:30:13;11.30;99.90
37646;DHT22;23489;49.600;6.138;2023-03-31T17:32:39;11.30;99.90
37646;DHT22;23489;49.600;6.138;2023-03-31T17:35:06;11.20;99.90
37646;DHT22;23489;49.600;6.138;2023-03-31T17:37:32;11.20;99.90
37646;DHT22;23489;49.600;6.138;2023-03-31T17:39:58;11.10;99.90
37646;DHT22;23489;49.600;6.138;2023-03-31T17:42:23;11.00;99.90
37646;DHT22;23489;49.600;6.138;2023-03-31T17:44:49;11.00;99.90
37646;DHT22;23489;49.600;6.138;2023-03-31T17:47:17;10.80;99.90
37646;DHT22;23489;49.600;6.138;2023-03-31T17:49:43;10.70;99.90
37646;DHT22;23489;49.600;6.138;2023-03-31T17:52:09;10.70;99.90
37646;DHT22;23489;49.600;6.138;2023-03-31T17:54:35;10.60;99.90
37646;DHT22;23489;49.600;6.138;2023-03-31T17:57:01;10.60;99.90
37646;DHT22;23489;49.600;6.138;2023-03-31T17:59:27;10.50;99.90
37646;DHT22;23489;49.600;6.138;2023-03-31T18:01:53;10.50;99.90
37646;DHT22;23489;49.600;6.138;2023-03-31T18:04:19;10.40;99.90
37646;DHT22;23489;49.600;6.138;2023-03-31T18:06:45;10.40;99.90
37646;DHT22;23489;49.600;6.138;2023-03-31T18:09:13;10.30;99.90
37646;DHT22;23489;49.600;6.138;2023-03-31T18:11:39;10.30;99.90
37646;DHT22;23489;49.600;6.138;2023-03-31T18:14:05;10.20;99.90
37646;DHT22;23489;49.600;6.138;2023-03-31T18:16:32;10.20;99.90
37646;DHT22;23489;49.600;6.138;2023-03-31T18:18:59;10.20;99.90
37646;DHT22;23489;49.600;6.138;2023-03-31T18:21:24;10.20;99.90
37646;DHT22;23489;49.600;6.138;2023-03-31T18:23:50;10.10;99.90
37646;DHT22;23489;49.600;6.138;2023-03-31T18:26:24;10.10;99.90
37646;DHT22;23489;49.600;6.138;2023-03-31T18:28:50;10.00;99.90
37646;DHT22;23489;49.600;6.138;2023-03-31T18:31:16;10.00;99.90